Time;durP1;ratioP1;P1;durP2;ratioP2;P2;SDS_P1;SDS_P2;PMS_P1;PMS_P2;Temp;Humidity;BMP_temperature;BMP_pressure;BME280_temperature;BME280_humidity;BME280_pressure;Samples;Min_cycle;Max_cycle;Signal;HPM_P1;HPM_P2
2022/10/07 00:01:09;;;;;;;23.60;12.60;;;;;;;11.92;100.00;93763.25;4991583;28;20065;-79
2022/10/07 00:03:35;;;;;;;22.27;12.25;;;;;;;11.84;100.00;93749.56;5002375;28;20057;-79
2022/10/07 00:06:04;;;;;;;22.10;12.38;;;;;;;11.90;100.00;93755.63;5042271;28;20037;-80
2022/10/07 00:08:30;;;;;;;23.17;12.65;;;;;;;11.90;100.00;93755.63;5024242;28;20034;-80
2022/10/07 00:10:56;;;;;;;26.80;12.93;;;;;;;11.90;100.00;93757.47;5017419;28;20161;-80
2022/10/07 00:13:22;;;;;;;19.42;12.25;;;;;;;11.89;100.00;93759.31;5041923;28;20033;-79
2022/10/07 00:15:47;;;;;;;23.63;12.60;;;;;;;11.88;100.00;93755.88;5043202;28;20033;-79
2022/10/07 00:18:13;;;;;;;23.83;11.88;;;;;;;11.84;100.00;93757.44;5027083;28;20057;-79
2022/10/07 00:20:39;;;;;;;20.42;11.68;;;;;;;11.82;100.00;93750.84;5026882;28;20026;-79
2022/10/07 00:23:05;;;;;;;21.90;11.50;;;;;;;11.80;100.00;93751.13;5043098;28;20037;-79
2022/10/07 00:25:35;;;;;;;22.73;11.60;;;;;;;11.77;100.00;93748.25;5025293;28;20049;-78
2022/10/07 00:28:01;;;;;;;22.05;11.45;;;;;;;11.77;100.00;93756.09;5028671;28;20052;-79
2022/10/07 00:30:27;;;;;;;19.73;11.02;;;;;;;11.76;99.96;93752.69;5044784;28;20044;-79
2022/10/07 00:32:53;;;;;;;19.95;10.63;;;;;;;11.73;99.71;93747.19;5026181;28;20042;-79
2022/10/07 00:35:21;;;;;;;14.45;10.00;;;;;;;11.74;99.43;93738.28;5011280;28;20033;-79
2022/10/07 00:37:46;;;;;;;18.70;10.65;;;;;;;11.73;99.48;93750.63;5025354;28;20127;-79
2022/10/07 00:40:12;;;;;;;17.85;10.55;;;;;;;11.66;99.55;93739.56;5032609;28;20067;-79
2022/10/07 00:42:39;;;;;;;22.73;10.75;;;;;;;11.70;99.64;93738.00;5050685;28;20036;-79
2022/10/07 00:45:15;;;;;;;21.45;9.80;;;;;;;11.69;99.53;93741.69;5025878;28;20045;-79
2022/10/07 00:47:45;;;;;;;20.00;11.02;;;;;;;11.67;99.68;93736.69;5026144;28;20048;-79
2022/10/07 00:50:18;;;;;;;18.60;11.00;;;;;;;11.62;99.74;93728.84;5008868;28;20063;-79
2022/10/07 00:52:50;;;;;;;16.95;10.43;;;;;;;11.64;99.81;93736.41;5024738;28;20068;-79
2022/10/07 00:55:21;;;;;;;19.58;10.75;;;;;;;11.64;99.43;93734.59;5026620;28;20024;-79
2022/10/07 00:57:49;;;;;;;19.63;10.95;;;;;;;11.66;99.00;93731.69;5043867;28;20049;-79
2022/10/07 01:00:15;;;;;;;20.77;11.70;;;;;;;11.66;98.98;93729.09;5041023;28;20029;-80
2022/10/07 01:02:42;;;;;;;18.20;10.60;;;;;;;11.65;98.75;93723.06;5042545;28;20034;-79
2022/10/07 01:05:09;;;;;;;17.92;10.77;;;;;;;11.64;98.80;93720.69;5042975;28;20060;-79
2022/10/07 01:07:37;;;;;;;21.77;11.50;;;;;;;11.63;98.82;93719.13;5044126;28;20025;-79
2022/10/07 01:10:04;;;;;;;17.73;11.52;;;;;;;11.63;98.85;93716.50;5061015;28;20060;-79
2022/10/07 01:12:35;;;;;;;21.00;12.05;;;;;;;11.61;98.93;93713.34;5045362;28;20048;-79
2022/10/07 01:15:07;;;;;;;21.05;11.55;;;;;;;11.61;98.77;93715.97;5006896;28;20068;-80
2022/10/07 01:17:52;;;;;;;22.15;11.35;;;;;;;11.60;98.65;93715.19;5042718;28;20101;-79
2022/10/07 01:20:33;;;;;;;19.63;11.20;;;;;;;11.59;98.85;93708.34;5010482;28;20030;-80
2022/10/07 01:23:14;;;;;;;19.77;11.45;;;;;;;11.58;98.84;93704.19;5024123;28;20060;-80
2022/10/07 01:25:40;;;;;;;24.73;10.68;;;;;;;11.57;98.99;93701.81;5025413;28;20118;-79
2022/10/07 01:28:18;;;;;;;19.58;10.18;;;;;;;11.56;98.87;93695.78;5044654;28;20058;-79
2022/10/07 01:30:50;;;;;;;20.92;9.85;;;;;;;11.57;98.52;93696.56;5025036;28;20041;-79
2022/10/07 01:33:20;;;;;;;;;;;;;;;11.55;98.39;93690.78;5016111;28;20037;-80
2022/10/07 01:35:49;;;;;;;17.08;9.23;;;;;;;11.55;98.47;93693.41;5042174;28;20278;-79
2022/10/07 01:38:18;;;;;;;20.52;10.57;;;;;;;11.54;98.31;93683.97;5021597;28;20033;-79
2022/10/07 01:40:53;;;;;;;17.60;10.77;;;;;;;11.54;98.10;93683.97;5023517;28;20030;-80
2022/10/07 01:43:21;;;;;;;17.38;9.60;;;;;;;11.52;98.00;93678.22;5023175;28;20105;-80
2022/10/07 01:45:47;;;;;;;18.90;9.82;;;;;;;11.53;98.32;93690.25;5040736;28;20029;-80
2022/10/07 01:48:14;;;;;;;21.67;10.98;;;;;;;11.50;98.56;93688.94;5023067;28;20021;-79
2022/10/07 01:50:40;;;;;;;22.80;10.18;;;;;;;11.47;98.54;93684.25;5029052;28;20090;-79
2022/10/07 01:53:25;;;;;;;24.17;11.45;;;;;;;11.45;98.54;93681.88;5049059;28;20116;-79
2022/10/07 01:56:15;;;;;;;21.35;10.35;;;;;;;11.43;98.60;93678.72;5024323;28;20061;-79
2022/10/07 01:58:53;;;;;;;18.98;9.95;;;;;;;11.41;99.20;93675.56;5008608;28;20067;-79
2022/10/07 02:01:40;;;;;;;13.98;9.25;;;;;;;11.40;99.21;93673.22;5022742;28;20029;-79
2022/10/07 02:04:34;;;;;;;17.05;10.00;;;;;;;11.39;99.60;93667.22;5024748;28;20044;-79
2022/10/07 02:07:36;;;;;;;18.20;10.10;;;;;;;11.38;99.76;93670.88;5006454;28;20041;-80
2022/10/07 02:10:16;;;;;;;16.15;9.82;;;;;;;11.36;99.32;93665.09;5024408;28;20025;-80
2022/10/07 02:12:54;;;;;;;19.88;10.15;;;;;;;11.35;99.48;93666.16;5037989;28;20044;-79
2022/10/07 02:15:25;;;;;;;19.30;9.95;;;;;;;11.34;99.65;93661.94;4988693;28;20052;-78
2022/10/07 02:17:55;;;;;;;19.20;10.15;;;;;;;11.33;100.00;93663.00;5025439;28;20088;-78
2022/10/07 02:20:27;;;;;;;19.58;10.95;;;;;;;11.32;100.00;93664.03;5024035;28;20034;-79
2022/10/07 02:22:55;;;;;;;17.08;10.57;;;;;;;11.29;99.95;93661.94;5037738;28;20033;-79
2022/10/07 02:25:25;;;;;;;17.02;10.93;;;;;;;11.29;100.00;93658.53;5023894;28;20399;-79
2022/10/07 02:27:54;;;;;;;18.10;11.52;;;;;;;11.27;100.00;93653.56;5024367;28;20060;-78
2022/10/07 02:30:21;;;;;;;24.65;11.68;;;;;;;11.23;100.00;93650.66;5023110;28;20034;-79
2022/10/07 02:32:52;;;;;;;20.60;11.13;;;;;;;11.23;100.00;93653.28;5005606;28;20025;-78
2022/10/07 02:36:03;;;;;;;18.20;11.27;;;;;;;11.20;100.00;93653.03;5022127;28;20037;-79
2022/10/07 02:38:29;;;;;;;19.13;10.30;;;;;;;11.18;100.00;93644.63;5005692;28;20041;-78
2022/10/07 02:41:30;;;;;;;18.42;10.35;;;;;;;11.15;100.00;93640.72;4996705;28;20029;-79
2022/10/07 02:44:26;;;;;;;18.52;10.10;;;;;;;11.14;100.00;93638.34;5021201;28;20413;-79
2022/10/07 02:47:05;;;;;;;18.58;10.73;;;;;;;11.12;100.00;93635.19;5020366;28;20033;-78
2022/10/07 02:49:38;;;;;;;20.15;11.18;;;;;;;11.09;100.00;93627.88;5027100;28;20068;-78
2022/10/07 02:52:08;;;;;;;18.17;11.07;;;;;;;11.08;100.00;93627.09;5008638;28;20033;-79
2022/10/07 02:54:41;;;;;;;25.92;12.65;;;;;;;11.08;100.00;93629.72;5023258;28;20042;-78
2022/10/07 02:57:09;;;;;;;21.52;11.95;;;;;;;11.08;100.00;93628.91;5009790;28;20041;-78
2022/10/07 02:59:38;;;;;;;25.13;12.48;;;;;;;11.06;100.00;93625.78;5026299;28;20037;-78
2022/10/07 03:02:09;;;;;;;26.05;12.52;;;;;;;11.04;100.00;93626.81;5008403;28;20068;-78
2022/10/07 03:04:35;;;;;;;20.30;12.18;;;;;;;11.03;100.00;93627.88;5011306;28;20026;-78
2022/10/07 03:07:00;;;;;;;22.67;13.07;;;;;;;11.01;100.00;93623.91;5025199;28;20152;-78
2022/10/07 03:09:28;;;;;;;30.08;15.15;;;;;;;10.99;100.00;93631.28;5025366;28;20045;-79
2022/10/07 03:11:53;;;;;;;22.98;13.90;;;;;;;10.99;100.00;93618.94;5026127;28;20096;-79
2022/10/07 03:14:19;;;;;;;25.50;12.98;;;;;;;10.99;100.00;93621.56;5008330;28;20034;-79
2022/10/07 03:16:45;;;;;;;23.23;12.95;;;;;;;10.99;100.00;93626.81;5004545;28;20101;-78
2022/10/07 03:19:10;;;;;;;20.92;12.23;;;;;;;10.99;100.00;93621.56;5024635;28;20061;-78
2022/10/07 03:21:52;;;;;;;23.52;12.35;;;;;;;10.99;100.00;93629.44;5024959;28;20558;-78
2022/10/07 03:24:19;;;;;;;23.38;13.05;;;;;;;10.99;100.00;93616.31;5008729;28;20127;-79
2022/10/07 03:26:46;;;;;;;20.23;12.80;;;;;;;11.01;100.00;93622.09;4976609;28;20053;-78
2022/10/07 03:29:12;;;;;;;27.63;13.13;;;;;;;11.03;100.00;93620.00;5009905;28;20033;-79
2022/10/07 03:31:41;;;;;;;27.15;13.13;;;;;;;11.04;100.00;93615.53;5006062;28;20097;-80
2022/10/07 03:34:08;;;;;;;24.50;13.55;;;;;;;11.02;100.00;93610.56;5005072;28;20037;-80
2022/10/07 03:36:35;;;;;;;28.13;13.55;;;;;;;11.04;100.00;93608.47;4991414;28;20124;-80
2022/10/07 03:39:03;;;;;;;22.00;14.02;;;;;;;11.06;100.00;93610.84;5025175;28;20041;-80
2022/10/07 03:41:30;;;;;;;23.85;13.75;;;;;;;11.08;100.00;93613.16;5024653;28;20029;-79
2022/10/07 03:43:58;;;;;;;23.30;14.63;;;;;;;11.10;100.00;93616.31;5026105;28;20029;-79
2022/10/07 03:46:25;;;;;;;26.48;14.60;;;;;;;11.11;100.00;93612.66;5006004;28;20380;-79
2022/10/07 03:48:51;;;;;;;24.85;14.07;;;;;;;11.11;100.00;93612.66;5022632;28;20040;-79
2022/10/07 03:51:17;;;;;;;23.80;13.93;;;;;;;11.11;100.00;93602.19;5021899;28;20037;-79
2022/10/07 03:53:43;;;;;;;22.80;12.88;;;;;;;11.11;100.00;93607.44;5005547;28;20045;-79
2022/10/07 03:56:10;;;;;;;26.80;14.13;;;;;;;11.10;100.00;93598.78;5035936;28;20029;-79
2022/10/07 03:58:38;;;;;;;27.70;14.95;;;;;;;11.08;100.00;93600.06;5023389;28;20029;-79
2022/10/07 04:01:11;;;;;;;24.48;13.23;;;;;;;11.08;100.00;93597.44;5022350;28;20038;-79
2022/10/07 04:03:42;;;;;;;19.88;12.07;;;;;;;11.06;100.00;93591.72;5023691;28;20025;-79
2022/10/07 04:06:08;;;;;;;19.20;11.18;;;;;;;11.06;100.00;93596.94;5008674;28;20041;-80
2022/10/07 04:08:34;;;;;;;19.02;11.10;;;;;;;11.03;100.00;93599.03;5023030;28;20033;-78
2022/10/07 04:11:02;;;;;;;23.65;11.00;;;;;;;11.03;100.00;93595.63;5011670;28;20061;-79
2022/10/07 04:13:29;;;;;;;19.88;10.85;;;;;;;10.99;100.00;93595.38;4999176;28;20760;-77
2022/10/07 04:15:56;;;;;;;20.15;10.30;;;;;;;10.91;100.00;93576.75;5011882;28;20044;-77
2022/10/07 04:18:22;;;;;;;18.73;10.70;;;;;;;10.99;100.00;93587.50;4996848;28;20060;-78
2022/10/07 04:20:50;;;;;;;22.60;11.45;;;;;;;10.98;100.00;93591.16;4998263;28;20403;-78
2022/10/07 04:23:15;;;;;;;21.00;10.75;;;;;;;10.96;100.00;93592.47;5023471;28;20097;-78
2022/10/07 04:25:45;;;;;;;23.05;12.25;;;;;;;10.92;100.00;93581.75;5018608;28;20100;-78
2022/10/07 04:28:24;;;;;;;26.83;13.48;;;;;;;10.91;100.00;93587.22;5035390;28;20046;-78
2022/10/07 04:30:57;;;;;;;;;;;;;;;10.89;100.00;93584.09;5022688;28;20087;-79
2022/10/07 04:33:30;;;;;;;;;;;;;;;10.88;100.00;93593.00;5017047;28;19975;-78
2022/10/07 04:36:03;;;;;;;31.27;16.80;;;;;;;10.86;100.00;93580.16;5022482;28;19928;-79
2022/10/07 04:38:31;;;;;;;35.13;18.35;;;;;;;10.85;100.00;93583.81;5015359;28;20033;-79
2022/10/07 04:41:01;;;;;;;36.70;19.65;;;;;;;10.84;100.00;93575.16;5000412;28;20029;-78
2022/10/07 04:43:32;;;;;;;42.22;21.63;;;;;;;10.88;100.00;93569.44;5023962;28;20048;-78
2022/10/07 04:46:12;;;;;;;56.97;24.17;;;;;;;10.88;100.00;93577.28;5017599;28;20087;-79
2022/10/07 04:48:44;;;;;;;59.95;26.40;;;;;;;10.92;100.00;93575.69;5015044;28;20037;-78
2022/10/07 04:51:11;;;;;;;48.75;24.95;;;;;;;10.92;100.00;93571.28;5022929;28;20041;-79
2022/10/07 04:53:39;;;;;;;53.45;26.00;;;;;;;10.92;100.00;93576.50;5026636;28;20013;-77
2022/10/07 04:56:07;;;;;;;55.55;26.67;;;;;;;10.91;100.00;93572.28;5019204;28;20086;-77
2022/10/07 04:58:33;;;;;;;50.72;25.42;;;;;;;10.90;100.00;93572.56;4995070;28;20241;-78
2022/10/07 05:01:00;;;;;;;52.65;27.00;;;;;;;10.89;100.00;93571.78;5009369;28;20033;-78
2022/10/07 05:03:28;;;;;;;57.30;25.88;;;;;;;10.88;100.00;93582.53;5017577;28;20060;-79
2022/10/07 05:05:59;;;;;;;59.97;28.08;;;;;;;10.86;100.00;93574.16;5019331;28;20025;-79
2022/10/07 05:08:25;;;;;;;58.88;26.52;;;;;;;10.84;100.00;93582.25;5010334;28;20037;-78
2022/10/07 05:10:58;;;;;;;57.22;29.02;;;;;;;10.82;100.00;93579.88;5019392;28;20522;-80
2022/10/07 05:13:27;;;;;;;56.45;27.85;;;;;;;10.82;100.00;93579.09;5017717;28;20060;-80
2022/10/07 05:15:59;;;;;;;61.28;28.60;;;;;;;10.83;100.00;93575.47;5021984;28;20541;-78
2022/10/07 05:18:26;;;;;;;53.53;28.05;;;;;;;10.80;100.00;93571.50;5015815;28;20535;-79
2022/10/07 05:20:55;;;;;;;56.65;28.33;;;;;;;10.81;100.00;93570.47;5003573;28;20584;-77
2022/10/07 05:23:24;;;;;;;65.28;32.00;;;;;;;10.83;100.00;93575.47;4994898;28;20495;-77
2022/10/07 05:26:00;;;;;;;64.15;29.65;;;;;;;10.82;100.00;93574.66;5012872;28;20585;-77
2022/10/07 05:28:26;;;;;;;60.95;28.38;;;;;;;10.81;100.00;93577.53;5023974;28;20037;-78
2022/10/07 05:31:21;;;;;;;58.83;28.95;;;;;;;10.84;100.00;93580.41;4991978;28;20071;-79
2022/10/07 05:33:51;;;;;;;54.17;26.65;;;;;;;10.86;100.00;93580.16;4984087;28;20046;-78
2022/10/07 05:36:19;;;;;;;55.63;26.98;;;;;;;10.85;100.00;93581.19;5012846;28;20044;-78
2022/10/07 05:38:45;;;;;;;56.35;26.50;;;;;;;10.88;100.00;93583.31;5013619;28;20053;-78
2022/10/07 05:41:11;;;;;;;49.92;25.42;;;;;;;10.87;100.00;93578.31;5014760;28;20030;-78
2022/10/07 05:43:41;;;;;;;56.40;27.08;;;;;;;10.91;100.00;93585.41;4998384;28;20053;-78
2022/10/07 05:46:12;;;;;;;53.65;27.15;;;;;;;11.07;100.00;93580.94;5016896;28;20037;-78
2022/10/07 05:48:46;;;;;;;54.47;25.20;;;;;;;11.45;100.00;93582.25;5016925;28;20120;-78
2022/10/07 05:51:15;;;;;;;50.23;25.47;;;;;;;11.84;100.00;93586.91;5017532;28;20083;-78
2022/10/07 05:53:41;;;;;;;48.15;22.92;;;;;;;12.24;100.00;93579.19;5017825;28;20181;-78
2022/10/07 05:56:11;;;;;;;45.88;23.80;;;;;;;12.63;100.00;93581.88;5002752;28;20486;-78
2022/10/07 05:58:37;;;;;;;44.08;22.80;;;;;;;13.06;100.00;93576.88;5019349;28;20029;-78
2022/10/07 06:01:06;;;;;;;47.88;23.25;;;;;;;13.46;100.00;93580.25;5018116;28;20048;-78
2022/10/07 06:03:32;;;;;;;46.78;22.23;;;;;;;13.90;97.59;93574.03;5019325;28;20115;-78
2022/10/07 06:06:01;;;;;;;41.80;22.23;;;;;;;14.40;96.16;93570.31;5002412;28;20056;-78
2022/10/07 06:08:28;;;;;;;40.97;21.92;;;;;;;14.88;92.29;93572.84;5019884;28;20492;-79
2022/10/07 06:13:48;;;;;;;44.63;20.58;;;;;;;15.76;84.59;93573.84;4998459;28;20045;-78
2022/10/07 06:16:14;;;;;;;33.50;18.08;;;;;;;16.24;84.68;93576.09;4999826;28;20033;-78
2022/10/07 06:18:39;;;;;;;32.22;16.98;;;;;;;16.79;81.93;93574.47;4983700;28;20062;-79
2022/10/07 06:21:05;;;;;;;31.50;16.63;;;;;;;17.32;78.96;93567.75;4979272;28;20514;-79
2022/10/07 06:23:32;;;;;;;30.35;15.75;;;;;;;17.64;75.29;93569.34;4979016;28;20411;-78
2022/10/07 06:26:04;;;;;;;29.50;15.18;;;;;;;18.18;73.40;93569.31;4996078;28;20045;-78
2022/10/07 06:28:36;;;;;;;26.52;14.32;;;;;;;18.68;72.04;93561.00;5001249;28;20417;-79
2022/10/07 06:31:08;;;;;;;23.83;13.63;;;;;;;19.00;69.74;93564.31;5033039;28;20330;-78
2022/10/07 06:33:36;;;;;;;22.27;13.98;;;;;;;19.62;68.56;93563.94;5016192;28;20030;-78
2022/10/07 06:36:06;;;;;;;28.48;16.15;;;;;;;20.07;66.36;93565.41;5034629;28;20041;-78
2022/10/07 06:38:32;;;;;;;27.48;16.92;;;;;;;20.50;66.62;93569.75;5013798;28;20056;-79
2022/10/07 06:41:00;;;;;;;29.20;16.50;;;;;;;21.06;63.15;93570.34;5015505;28;20533;-79
2022/10/07 06:43:29;;;;;;;20.85;14.25;;;;;;;21.46;62.16;93566.41;5019556;28;20046;-79
2022/10/07 06:46:05;;;;;;;22.80;14.10;;;;;;;21.82;61.07;93563.88;5004000;28;20046;-79
2022/10/07 06:48:34;;;;;;;25.65;15.02;;;;;;;22.40;57.61;93565.72;5017509;28;20056;-79
2022/10/07 06:51:02;;;;;;;23.35;14.18;;;;;;;22.63;56.13;93569.50;5002062;28;20036;-79
2022/10/07 06:53:30;;;;;;;28.05;14.13;;;;;;;22.89;54.74;93562.25;5002576;28;20061;-80
2022/10/07 06:56:03;;;;;;;27.30;16.73;;;;;;;23.45;54.56;93560.41;5019146;28;20120;-80
2022/10/07 06:58:32;;;;;;;28.65;17.08;;;;;;;23.68;54.07;93567.88;5002919;28;20144;-79
2022/10/07 07:00:58;;;;;;;27.75;17.33;;;;;;;23.86;53.00;93563.81;5003027;28;20041;-80
2022/10/07 07:03:25;;;;;;;25.35;16.00;;;;;;;24.14;51.80;93557.63;5018428;28;20025;-79
2022/10/07 07:05:53;;;;;;;27.77;17.02;;;;;;;23.97;52.39;93565.97;5001777;28;20054;-79
2022/10/07 07:08:26;;;;;;;28.05;17.05;;;;;;;24.42;51.55;93562.09;5019206;28;20033;-80
2022/10/07 07:10:54;;;;;;;28.77;17.48;;;;;;;24.29;50.20;93567.53;5010386;28;20053;-80
2022/10/07 07:13:21;;;;;;;27.40;16.77;;;;;;;24.05;50.97;93560.47;5001459;28;20402;-80
2022/10/07 07:15:58;;;;;;;26.35;15.82;;;;;;;24.35;50.89;93559.25;5018089;28;20037;-80
2022/10/07 07:18:26;;;;;;;28.65;16.90;;;;;;;23.96;51.24;93559.06;5002509;28;20132;-79
2022/10/07 07:20:52;;;;;;;29.38;17.27;;;;;;;23.84;52.64;93565.25;5013674;28;20075;-78
2022/10/07 07:23:18;;;;;;;24.95;16.25;;;;;;;24.10;50.48;93568.22;5005549;28;20041;-79
2022/10/07 07:25:44;;;;;;;23.80;15.23;;;;;;;22.97;54.51;93572.03;5021708;28;20346;-79
2022/10/07 07:28:12;;;;;;;22.10;14.25;;;;;;;22.27;56.65;93567.63;5021715;28;20025;-78
2022/10/07 07:30:38;;;;;;;26.85;15.20;;;;;;;22.43;56.98;93570.41;5020424;28;20416;-78
2022/10/07 07:33:05;;;;;;;27.73;15.50;;;;;;;22.40;56.73;93555.84;5002917;28;20029;-78
2022/10/07 07:35:35;;;;;;;23.52;14.50;;;;;;;22.88;55.70;93558.81;5019316;28;20184;-78
2022/10/07 07:38:00;;;;;;;23.95;12.60;;;;;;;22.79;52.57;93566.94;5037567;28;20037;-78
2022/10/07 07:40:26;;;;;;;21.70;12.77;;;;;;;22.62;52.59;93564.50;5019730;28;20032;-78
2022/10/07 07:42:56;;;;;;;20.00;11.65;;;;;;;22.61;53.40;93566.41;5018966;28;20033;-78
2022/10/07 07:45:23;;;;;;;18.58;11.82;;;;;;;22.49;54.21;93569.06;5019639;28;20120;-77
2022/10/07 07:47:49;;;;;;;23.08;12.88;;;;;;;22.22;54.78;93576.63;5035950;28;20559;-78
2022/10/07 07:50:19;;;;;;;19.98;12.60;;;;;;;22.53;55.22;93572.63;5018681;28;20029;-78
2022/10/07 07:52:45;;;;;;;20.23;12.88;;;;;;;21.95;56.79;93572.69;5002539;28;20467;-78
2022/10/07 07:55:11;;;;;;;22.10;13.25;;;;;;;21.92;58.15;93576.00;5018304;28;20052;-78
2022/10/07 07:57:37;;;;;;;23.13;13.75;;;;;;;21.48;58.57;93580.19;5001802;28;20033;-78
2022/10/07 08:00:06;;;;;;;19.52;12.43;;;;;;;21.43;60.72;93575.84;5002204;28;20528;-77
2022/10/07 08:02:39;;;;;;;27.23;13.43;;;;;;;21.32;60.38;93583.44;5018678;28;20041;-78
2022/10/07 08:05:07;;;;;;;21.42;14.25;;;;;;;20.70;61.67;93584.97;5001730;28;20053;-77
2022/10/07 08:07:34;;;;;;;23.98;14.52;;;;;;;20.52;62.31;93586.16;5011928;28;20033;-78
2022/10/07 08:10:01;;;;;;;20.92;13.40;;;;;;;20.48;63.00;93577.25;5035509;28;20040;-77
2022/10/07 08:12:27;;;;;;;22.85;14.35;;;;;;;20.70;62.89;93581.56;5004990;28;20064;-77
2022/10/07 08:14:54;;;;;;;25.52;14.23;;;;;;;20.66;62.72;93578.75;5033421;28;20052;-77
2022/10/07 08:17:20;;;;;;;24.63;14.63;;;;;;;20.73;63.17;93586.22;5018374;28;20041;-77
2022/10/07 08:19:46;;;;;;;20.70;13.63;;;;;;;20.67;63.40;93575.00;5019632;28;20073;-77
2022/10/07 08:22:16;;;;;;;22.98;14.48;;;;;;;20.63;63.52;93579.41;5038341;28;20044;-77
2022/10/07 08:24:44;;;;;;;32.93;15.90;;;;;;;20.49;63.62;93578.81;5020973;28;20044;-77
2022/10/07 08:27:10;;;;;;;28.65;16.67;;;;;;;20.45;64.07;93578.69;5034971;28;20271;-77
2022/10/07 08:29:36;;;;;;;28.45;14.63;;;;;;;20.17;65.07;93576.47;5017369;28;20509;-77
2022/10/07 08:32:03;;;;;;;23.65;13.35;;;;;;;20.67;65.96;93575.00;5016293;28;20057;-77
2022/10/07 08:34:29;;;;;;;23.83;13.63;;;;;;;21.16;61.94;93572.59;5000094;28;20199;-77
2022/10/07 08:36:55;;;;;;;25.30;14.23;;;;;;;21.05;63.08;93573.31;5016932;28;20495;-76
2022/10/07 08:39:23;;;;;;;25.42;14.13;;;;;;;20.74;62.91;93575.25;5016689;28;20041;-77
2022/10/07 08:41:48;;;;;;;25.98;14.77;;;;;;;20.73;64.14;93572.91;5030697;28;20057;-77
2022/10/07 08:44:16;;;;;;;30.85;15.90;;;;;;;20.31;65.44;93570.13;5033751;28;20071;-79
2022/10/07 08:47:11;;;;;;;29.50;15.63;;;;;;;20.42;65.93;93568.66;5015618;28;20491;-80
2022/10/07 08:49:43;;;;;;;26.70;15.27;;;;;;;20.29;65.93;93567.81;5027248;28;20438;-77
2022/10/07 08:52:24;;;;;;;23.65;14.23;;;;;;;20.51;63.79;93566.78;5015700;28;20047;-77
2022/10/07 08:54:50;;;;;;;26.77;15.25;;;;;;;20.25;65.35;93564.22;5032936;28;20040;-77
2022/10/07 08:58:02;;;;;;;22.30;13.60;;;;;;;20.23;66.23;93552.38;5015533;28;20383;-77
2022/10/07 09:00:37;;;;;;;27.30;13.65;;;;;;;21.15;63.64;93549.75;4954128;28;20049;-77
2022/10/07 09:03:16;;;;;;;22.33;13.57;;;;;;;21.26;61.51;93546.69;5015422;28;20399;-77
2022/10/07 09:05:47;;;;;;;20.92;14.20;;;;;;;21.21;61.57;93550.34;5032622;28;20033;-79
2022/10/07 09:08:23;;;;;;;21.60;13.80;;;;;;;21.02;59.99;93539.38;5033017;28;20089;-77
2022/10/07 09:10:52;;;;;;;22.55;13.93;;;;;;;20.84;60.20;93536.84;5032418;28;20081;-77
2022/10/07 09:13:29;;;;;;;22.95;13.70;;;;;;;21.10;58.75;93539.31;5015117;28;20266;-77
2022/10/07 09:16:11;;;;;;;24.80;14.38;;;;;;;21.15;60.96;93536.44;5014605;28;20045;-77
2022/10/07 09:18:44;;;;;;;23.02;13.45;;;;;;;20.86;61.28;93539.97;5013999;28;20049;-77
2022/10/07 09:21:47;;;;;;;22.30;12.75;;;;;;;21.19;61.16;93539.25;5032373;28;20033;-77
2022/10/07 09:24:23;;;;;;;21.33;14.45;;;;;;;21.23;57.22;93531.34;5012134;28;20052;-78
2022/10/07 09:26:53;;;;;;;25.33;12.55;;;;;;;21.26;60.73;93531.50;4998505;28;20495;-79
2022/10/07 09:29:22;;;;;;;27.60;14.93;;;;;;;20.57;60.59;93532.81;5034191;28;20037;-79
2022/10/07 09:31:48;;;;;;;25.50;13.75;;;;;;;20.63;61.26;93525.44;5035179;28;20376;-78
2022/10/07 09:34:26;;;;;;;20.80;13.40;;;;;;;20.43;62.29;93525.03;5017448;28;20092;-79
2022/10/07 09:37:07;;;;;;;20.17;12.90;;;;;;;20.55;60.87;93530.44;5000271;28;20037;-79
2022/10/07 09:39:33;;;;;;;19.08;12.85;;;;;;;20.70;60.35;93528.34;5034486;28;20057;-79
2022/10/07 09:41:59;;;;;;;20.15;13.02;;;;;;;20.64;59.21;93514.44;5001184;28;20081;-79
2022/10/07 09:44:26;;;;;;;24.25;13.40;;;;;;;20.71;60.11;93524.56;5035344;28;20033;-78
2022/10/07 09:46:58;;;;;;;24.42;13.23;;;;;;;20.30;61.55;93521.50;5017753;28;20029;-79
2022/10/07 09:49:26;;;;;;;17.52;10.38;;;;;;;20.66;60.99;93519.44;5035212;28;20037;-78
2022/10/07 09:52:17;;;;;;;22.90;11.52;;;;;;;20.51;60.25;93523.41;5017413;28;20530;-78
2022/10/07 09:54:47;;;;;;;17.60;12.23;;;;;;;20.68;60.29;93510.03;5015841;28;20055;-79
2022/10/07 09:57:35;;;;;;;18.67;11.35;;;;;;;21.13;61.62;93508.59;5035124;28;20075;-78
2022/10/07 10:00:21;;;;;;;20.92;10.30;;;;;;;21.34;57.13;93501.31;5034721;28;20040;-79
2022/10/07 10:02:53;;;;;;;20.27;11.23;;;;;;;21.18;57.69;93508.38;5000651;28;20483;-79
2022/10/07 10:05:25;;;;;;;19.33;11.10;;;;;;;21.35;58.11;93499.47;5035340;28;20090;-79
2022/10/07 10:08:09;;;;;;;21.77;11.05;;;;;;;21.76;56.21;93503.13;5017379;28;20045;-79
2022/10/07 10:10:35;;;;;;;14.88;10.57;;;;;;;22.14;55.86;93500.16;5017800;28;20041;-79
2022/10/07 10:13:04;;;;;;;17.95;10.50;;;;;;;22.39;52.68;93494.84;5001498;28;20171;-79
2022/10/07 10:15:40;;;;;;;14.80;9.20;;;;;;;22.75;51.64;93490.53;5035361;28;20037;-79
2022/10/07 10:18:31;;;;;;;14.98;8.70;;;;;;;23.06;50.98;93493.38;5017377;28;20068;-79
2022/10/07 10:21:28;;;;;;;15.27;9.15;;;;;;;22.93;50.67;93486.47;5035509;28;20045;-79
2022/10/07 10:23:57;;;;;;;15.27;9.60;;;;;;;22.90;54.07;93479.16;5017501;28;20033;-78
2022/10/07 10:26:56;;;;;;;19.33;12.02;;;;;;;22.83;54.07;93482.41;5018384;28;20021;-78
2022/10/07 10:29:36;;;;;;;18.08;8.68;;;;;;;22.15;50.93;93480.38;5036088;28;20487;-78
2022/10/07 10:32:21;;;;;;;18.17;9.07;;;;;;;22.40;51.32;93481.16;5035750;28;20044;-78
2022/10/07 10:35:12;;;;;;;15.75;9.45;;;;;;;22.52;52.02;93477.69;5020094;28;20034;-78
2022/10/07 10:38:15;;;;;;;16.80;10.40;;;;;;;22.41;53.87;93476.59;5019261;28;20049;-77
2022/10/07 10:41:02;;;;;;;15.88;10.75;;;;;;;22.32;56.01;93478.63;4998702;28;20086;-79
2022/10/07 10:44:12;;;;;;;16.73;10.77;;;;;;;21.42;58.53;93471.22;5011236;28;20034;-78
2022/10/07 10:46:53;;;;;;;16.30;10.88;;;;;;;21.24;58.51;93453.81;4982955;28;20049;-77
2022/10/07 10:49:24;;;;;;;21.00;12.68;;;;;;;20.97;59.76;93457.84;5025616;28;20103;-77
2022/10/07 10:52:13;;;;;;;18.30;10.93;;;;;;;21.00;61.09;93452.63;5019999;28;20108;-76
2022/10/07 10:55:03;;;;;;;17.65;10.82;;;;;;;20.81;62.42;93452.34;5030038;28;20121;-77
2022/10/07 10:58:11;;;;;;;19.55;10.75;;;;;;;20.86;61.70;93438.84;5026559;28;20048;-77
2022/10/07 11:00:43;;;;;;;16.88;10.02;;;;;;;21.19;60.47;93440.72;5014688;28;20146;-77
2022/10/07 11:03:15;;;;;;;16.10;8.77;;;;;;;21.40;56.61;93430.81;5016276;28;20042;-77
2022/10/07 11:05:42;;;;;;;18.67;10.50;;;;;;;21.62;58.43;93434.19;5037558;28;20032;-77
2022/10/07 11:08:11;;;;;;;17.90;10.68;;;;;;;21.56;58.25;93422.94;5047868;28;20495;-77
2022/10/07 11:10:54;;;;;;;11.85;8.02;;;;;;;21.83;54.94;93426.84;5033211;28;20091;-77
2022/10/07 11:13:29;;;;;;;13.88;8.07;;;;;;;22.12;53.90;93427.72;5026096;28;20518;-77
2022/10/07 11:16:13;;;;;;;12.40;8.05;;;;;;;22.31;54.01;93424.47;5015134;28;20044;-77
2022/10/07 11:18:41;;;;;;;12.48;7.97;;;;;;;22.40;50.54;93421.69;5015843;28;20045;-77
2022/10/07 11:21:19;;;;;;;12.38;7.30;;;;;;;22.50;51.84;93415.91;5015837;28;20104;-77
2022/10/07 11:23:44;;;;;;;12.95;6.93;;;;;;;22.38;49.75;93414.03;5012872;28;20028;-77
2022/10/07 11:26:28;;;;;;;9.82;6.55;;;;;;;22.50;49.45;93402.56;5015313;28;20025;-77
2022/10/07 11:28:56;;;;;;;9.70;7.00;;;;;;;22.70;49.60;93397.34;5032826;28;20037;-77
2022/10/07 11:31:38;;;;;;;13.23;8.18;;;;;;;22.56;52.43;93400.41;5014539;28;20040;-77
2022/10/07 11:34:17;;;;;;;11.63;6.78;;;;;;;22.68;51.53;93397.72;5016325;28;20529;-77
2022/10/07 11:36:52;;;;;;;8.60;5.85;;;;;;;23.02;49.07;93393.69;4996430;28;20100;-77
2022/10/07 11:39:17;;;;;;;11.77;8.10;;;;;;;;;;5001294;28;20041;-76
2022/10/07 11:42:02;;;;;;;10.50;6.50;;;;;;;23.17;49.94;93383.38;5014180;28;20041;-77